createdAt,value
2018-02-11T00:01:50.189Z,91.10
2018-02-11T00:04:17.318Z,91.20
2018-02-11T00:06:43.701Z,91.10
2018-02-11T00:09:10.891Z,91.30
2018-02-11T00:11:37.287Z,91.30
2018-02-11T00:14:04.462Z,91.40
2018-02-11T00:16:30.907Z,91.40
2018-02-11T00:18:57.326Z,91.60
2018-02-11T00:21:24.461Z,91.70
2018-02-11T00:23:50.897Z,91.70
2018-02-11T00:26:17.352Z,91.70
2018-02-11T00:28:43.772Z,91.60
2018-02-11T00:31:10.203Z,91.80
2018-02-11T00:33:36.585Z,91.80
2018-02-11T00:36:03.019Z,91.90
2018-02-11T00:38:30.181Z,92.30
2018-02-11T00:40:57.364Z,92.10
2018-02-11T00:43:24.493Z,92.20
2018-02-11T00:45:50.906Z,92.20
2018-02-11T00:48:17.328Z,92.20
2018-02-11T00:50:43.732Z,92.20
2018-02-11T00:53:10.130Z,92.40
2018-02-11T00:55:37.295Z,92.50
2018-02-11T00:58:03.707Z,92.50
2018-02-11T01:00:30.133Z,92.60
2018-02-11T01:02:56.529Z,92.70
2018-02-11T01:05:22.986Z,92.80
2018-02-11T01:07:49.413Z,93.00
2018-02-11T01:10:16.556Z,93.20
2018-02-11T01:12:42.958Z,93.10
2018-02-11T01:15:09.394Z,93.30
2018-02-11T01:17:36.521Z,93.20
2018-02-11T01:20:03.046Z,93.20
2018-02-11T01:22:30.498Z,93.30
2018-02-11T01:24:57.644Z,93.40
2018-02-11T01:27:24.030Z,93.40
2018-02-11T01:29:51.176Z,93.70
2018-02-11T01:32:17.578Z,93.70
2018-02-11T01:34:43.977Z,93.80
2018-02-11T01:37:10.371Z,93.70
2018-02-11T01:39:37.523Z,93.60
2018-02-11T01:42:03.900Z,93.60
2018-02-11T01:44:30.291Z,93.50
2018-02-11T01:46:56.711Z,93.50
2018-02-11T01:49:23.128Z,93.30
2018-02-11T01:51:49.554Z,93.30
2018-02-11T01:54:15.970Z,93.20
2018-02-11T01:56:43.152Z,93.10
2018-02-11T01:59:09.553Z,93.10
2018-02-11T02:01:35.951Z,93.10
2018-02-11T02:04:03.121Z,93.10
2018-02-11T02:06:30.278Z,93.10
2018-02-11T02:08:56.756Z,93.00
2018-02-11T02:11:24.260Z,92.90
2018-02-11T02:13:50.656Z,92.90
2018-02-11T02:16:17.077Z,92.80
2018-02-11T02:18:43.518Z,92.80
2018-02-11T02:21:09.947Z,92.80
2018-02-11T02:23:37.075Z,92.60
2018-02-11T02:26:03.488Z,92.60
2018-02-11T02:28:29.898Z,92.40
2018-02-11T02:30:56.280Z,92.40
2018-02-11T02:33:23.442Z,92.50
2018-02-11T02:35:49.877Z,92.10
2018-02-11T02:38:16.312Z,91.90
2018-02-11T02:40:42.769Z,91.80
2018-02-11T02:43:09.187Z,91.80
2018-02-11T02:45:36.322Z,91.60
2018-02-11T02:48:02.760Z,91.60
2018-02-11T02:50:29.178Z,91.70
2018-02-11T02:52:55.583Z,91.70
2018-02-11T02:55:21.971Z,91.60
2018-02-11T02:57:49.136Z,91.60
2018-02-11T03:00:16.253Z,91.60
2018-02-11T03:02:42.659Z,91.60
2018-02-11T03:05:09.081Z,91.70
2018-02-11T03:07:35.480Z,91.70
2018-02-11T03:10:02.783Z,91.60
2018-02-11T03:12:29.197Z,91.60
2018-02-11T03:14:55.602Z,91.80
2018-02-11T03:17:22.030Z,91.50
2018-02-11T03:19:49.177Z,91.30
2018-02-11T03:22:15.603Z,91.30
2018-02-11T03:24:41.998Z,91.30
2018-02-11T03:27:09.121Z,91.10
2018-02-11T03:29:35.503Z,91.10
2018-02-11T03:32:01.929Z,91.20
2018-02-11T03:34:28.319Z,91.10
2018-02-11T03:36:54.748Z,91.00
2018-02-11T03:39:21.208Z,90.90
2018-02-11T03:41:48.359Z,90.70
2018-02-11T03:44:14.767Z,90.70
2018-02-11T03:46:41.197Z,90.70
2018-02-11T03:49:07.601Z,90.70
2018-02-11T03:51:34.748Z,90.70
2018-02-11T03:54:01.143Z,90.70
2018-02-11T03:56:27.542Z,90.80
2018-02-11T03:58:53.960Z,90.90
2018-02-11T04:01:20.371Z,90.90
2018-02-11T04:03:47.532Z,90.90
2018-02-11T04:06:13.970Z,90.80
2018-02-11T04:08:40.379Z,90.90
2018-02-11T04:11:06.797Z,90.90
2018-02-11T04:13:33.201Z,91.00
2018-02-11T04:15:59.735Z,91.00
2018-02-11T04:18:26.928Z,91.00
2018-02-11T04:20:53.343Z,91.00
2018-02-11T04:23:19.726Z,91.00
2018-02-11T04:25:46.880Z,91.10
2018-02-11T04:28:13.289Z,91.00
2018-02-11T04:30:39.720Z,91.20
2018-02-11T04:33:06.125Z,91.10
2018-02-11T04:35:32.536Z,91.20
2018-02-11T04:37:58.953Z,91.20
2018-02-11T04:40:25.374Z,91.20
2018-02-11T04:42:51.822Z,91.10
2018-02-11T04:45:18.239Z,91.00
2018-02-11T04:47:45.390Z,91.20
2018-02-11T04:50:11.802Z,91.20
2018-02-11T04:52:38.234Z,91.70
2018-02-11T04:55:04.721Z,91.40
2018-02-11T04:57:31.545Z,91.50
2018-02-11T04:59:58.701Z,91.60
2018-02-11T05:02:25.853Z,92.00
2018-02-11T05:04:52.249Z,91.60
2018-02-11T05:07:18.650Z,91.80
2018-02-11T05:09:45.046Z,91.80
2018-02-11T05:12:12.222Z,91.70
2018-02-11T05:14:39.362Z,91.50
2018-02-11T05:17:05.776Z,91.50
2018-02-11T05:19:32.223Z,91.60
2018-02-11T05:21:58.670Z,91.60
2018-02-11T05:24:25.090Z,91.70
2018-02-11T05:26:51.494Z,91.60
2018-02-11T05:29:18.181Z,91.40
2018-02-11T05:31:44.614Z,91.40
2018-02-11T05:34:11.022Z,91.30
2018-02-11T05:36:37.446Z,91.10
2018-02-11T05:39:03.934Z,90.90
2018-02-11T05:41:30.329Z,90.80
2018-02-11T05:43:56.754Z,90.80
2018-02-11T05:46:23.854Z,91.00
2018-02-11T05:48:50.235Z,90.90
2018-02-11T05:51:16.659Z,91.00
2018-02-11T05:53:43.072Z,91.00
2018-02-11T05:56:09.488Z,91.00
2018-02-11T05:58:35.890Z,90.90
2018-02-11T06:01:02.375Z,90.90
2018-02-11T06:03:29.530Z,90.80
2018-02-11T06:05:56.679Z,91.10
2018-02-11T06:08:23.095Z,90.80
2018-02-11T06:10:49.507Z,90.80
2018-02-11T06:13:15.914Z,90.80
2018-02-11T06:15:42.337Z,90.80
2018-02-11T06:18:08.782Z,90.70
2018-02-11T06:20:35.962Z,90.70
2018-02-11T06:23:03.125Z,90.70
2018-02-11T06:25:30.297Z,90.70
2018-02-11T06:27:57.441Z,90.80
2018-02-11T06:30:23.856Z,90.80
2018-02-11T06:32:50.244Z,90.80
2018-02-11T06:35:16.674Z,90.70
2018-02-11T06:37:43.075Z,90.80
2018-02-11T06:40:09.480Z,90.80
2018-02-11T06:42:35.915Z,90.60
2018-02-11T06:45:03.121Z,90.30
2018-02-11T06:47:29.529Z,90.30
2018-02-11T06:49:56.697Z,90.10
2018-02-11T06:52:23.840Z,90.00
2018-02-11T06:54:50.292Z,89.60
2018-02-11T06:57:16.729Z,89.20
2018-02-11T06:59:43.136Z,88.80
2018-02-11T07:02:10.288Z,88.30
2018-02-11T07:04:36.744Z,88.30
2018-02-11T07:07:03.211Z,88.10
2018-02-11T07:09:29.650Z,87.70
2018-02-11T07:11:56.455Z,87.80
2018-02-11T07:14:22.917Z,86.70
2018-02-11T07:16:49.337Z,87.10
2018-02-11T07:19:15.734Z,87.10
2018-02-11T07:21:42.161Z,87.10
2018-02-11T07:24:09.273Z,86.00
2018-02-11T07:26:35.698Z,86.60
2018-02-11T07:29:02.868Z,85.40
2018-02-11T07:31:29.275Z,85.20
2018-02-11T07:33:55.688Z,85.20
2018-02-11T07:36:22.086Z,85.20
2018-02-11T07:38:48.513Z,85.20
2018-02-11T07:41:15.016Z,86.00
2018-02-11T07:43:41.402Z,86.20
2018-02-11T07:46:08.525Z,86.30
2018-02-11T07:48:34.950Z,86.30
2018-02-11T07:51:01.392Z,86.40
2018-02-11T07:53:28.523Z,86.50
2018-02-11T07:55:54.984Z,86.50
2018-02-11T07:58:21.432Z,86.80
2018-02-11T08:00:47.891Z,86.60
2018-02-11T08:03:14.365Z,86.30
2018-02-11T08:05:40.772Z,86.30
2018-02-11T08:08:07.180Z,86.70
2018-02-11T08:10:33.610Z,85.80
2018-02-11T08:13:00.067Z,83.80
2018-02-11T08:15:26.531Z,82.50
2018-02-11T08:17:52.945Z,84.40
2018-02-11T08:20:19.449Z,77.00
2018-02-11T08:22:45.907Z,66.80
2018-02-11T08:25:12.342Z,57.60
2018-02-11T08:27:38.758Z,56.30
2018-02-11T08:30:05.169Z,57.70
2018-02-11T08:32:31.615Z,58.70
2018-02-11T08:34:58.052Z,60.30
2018-02-11T08:37:24.485Z,62.40
2018-02-11T08:39:50.931Z,64.90
2018-02-11T08:42:17.357Z,67.10
2018-02-11T08:44:43.780Z,68.50
2018-02-11T08:47:10.280Z,69.80
2018-02-11T08:49:37.442Z,71.70
2018-02-11T08:52:03.924Z,71.70
2018-02-11T08:54:31.183Z,71.80
2018-02-11T08:56:58.371Z,73.30
2018-02-11T08:59:24.818Z,73.10
2018-02-11T09:01:51.991Z,68.40
2018-02-11T09:04:19.152Z,61.10
2018-02-11T09:06:45.558Z,61.00
2018-02-11T09:09:11.962Z,57.20
2018-02-11T09:11:38.388Z,55.10
2018-02-11T09:14:04.858Z,55.60
2018-02-11T09:16:31.527Z,55.90
2018-02-11T09:18:57.959Z,57.60
2018-02-11T09:21:24.399Z,58.50
2018-02-11T09:23:50.831Z,58.30
2018-02-11T09:26:17.278Z,57.50
2018-02-11T09:28:43.775Z,55.90
2018-02-11T09:31:10.216Z,57.00
2018-02-11T09:33:36.640Z,55.80
2018-02-11T09:36:03.840Z,51.30
2018-02-11T09:38:30.269Z,51.20
2018-02-11T09:40:57.531Z,51.80
2018-02-11T09:43:23.963Z,51.70
2018-02-11T09:45:50.460Z,51.80
2018-02-11T09:48:17.608Z,52.70
2018-02-11T09:50:44.040Z,52.70
2018-02-11T09:53:10.447Z,52.50
2018-02-11T09:55:37.884Z,53.90
2018-02-11T09:58:04.303Z,53.90
2018-02-11T10:00:30.835Z,55.90
2018-02-11T10:02:58.030Z,56.60
2018-02-11T10:05:24.626Z,56.60
2018-02-11T10:07:51.075Z,56.10
2018-02-11T10:10:17.508Z,56.00
2018-02-11T10:12:43.976Z,56.00
2018-02-11T10:15:10.476Z,55.40
2018-02-11T10:17:37.666Z,56.80
2018-02-11T10:20:04.873Z,56.80
2018-02-11T10:22:31.413Z,56.80
2018-02-11T10:24:57.847Z,56.80
2018-02-11T10:27:25.042Z,56.50
2018-02-11T10:29:51.480Z,56.40
2018-02-11T10:32:18.642Z,56.30
2018-02-11T10:34:45.832Z,56.50
2018-02-11T10:37:12.270Z,56.50
2018-02-11T10:39:39.446Z,58.70
2018-02-11T10:42:06.636Z,59.30
2018-02-11T10:44:33.065Z,59.30
2018-02-11T10:46:59.575Z,59.80
2018-02-11T10:49:26.029Z,60.20
2018-02-11T10:51:52.491Z,61.20
2018-02-11T10:54:18.966Z,61.50
2018-02-11T10:56:46.950Z,62.70
2018-02-11T10:59:14.158Z,63.80
2018-02-11T11:01:41.408Z,64.80
2018-02-11T11:04:07.822Z,64.80
2018-02-11T11:06:34.283Z,65.60
2018-02-11T11:09:00.753Z,64.70
2018-02-11T11:11:27.191Z,64.50
2018-02-11T11:13:53.636Z,64.40
2018-02-11T11:16:20.140Z,64.10
2018-02-11T11:18:46.602Z,64.20
2018-02-11T11:21:13.019Z,63.70
2018-02-11T11:23:39.437Z,63.00
2018-02-11T11:26:06.607Z,61.60
2018-02-11T11:28:33.777Z,61.30
2018-02-11T11:31:00.211Z,61.30
2018-02-11T11:33:26.666Z,62.10
2018-02-11T11:35:53.078Z,61.20
2018-02-11T11:38:19.521Z,60.70
2018-02-11T11:40:46.718Z,61.20
2018-02-11T11:43:13.152Z,61.10
2018-02-11T11:45:39.550Z,61.60
2018-02-11T11:48:06.003Z,61.70
2018-02-11T11:50:32.443Z,62.00
2018-02-11T11:52:58.930Z,61.20
2018-02-11T11:55:25.330Z,61.70
2018-02-11T11:57:51.776Z,61.50
2018-02-11T12:00:18.943Z,62.10
2018-02-11T12:02:46.122Z,62.10
2018-02-11T12:05:13.296Z,62.00
2018-02-11T12:07:40.426Z,61.60
2018-02-11T12:10:06.819Z,61.50
2018-02-11T12:12:34.006Z,62.30
2018-02-11T12:15:00.404Z,62.20
2018-02-11T12:17:26.939Z,63.00
2018-02-11T12:19:53.355Z,63.00
2018-02-11T12:22:20.569Z,63.20
2018-02-11T12:24:46.998Z,63.10
2018-02-11T12:27:13.438Z,63.50
2018-02-11T12:29:40.598Z,63.70
2018-02-11T12:32:07.095Z,63.70
2018-02-11T12:34:34.227Z,64.80
2018-02-11T12:37:00.645Z,64.80
2018-02-11T12:39:27.082Z,65.70
2018-02-11T12:41:53.479Z,65.70
2018-02-11T12:44:19.926Z,66.30
2018-02-11T12:46:46.368Z,67.20
2018-02-11T12:49:12.775Z,67.30
2018-02-11T12:51:39.960Z,68.90
2018-02-11T12:54:06.411Z,68.90
2018-02-11T12:56:33.597Z,70.10
2018-02-11T12:59:00.068Z,70.00
2018-02-11T13:01:26.477Z,70.30
2018-02-11T13:03:52.923Z,70.60
2018-02-11T13:06:19.340Z,71.70
2018-02-11T13:08:45.796Z,71.70
2018-02-11T13:11:12.218Z,72.70
2018-02-11T13:13:39.388Z,73.40
2018-02-11T13:16:06.597Z,74.40
2018-02-11T13:18:33.173Z,74.40
2018-02-11T13:20:59.594Z,75.40
2018-02-11T13:23:26.010Z,76.80
2018-02-11T13:25:53.256Z,79.90
2018-02-11T13:28:19.696Z,79.90
2018-02-11T13:30:46.124Z,81.60
2018-02-11T13:33:13.286Z,84.90
2018-02-11T13:35:40.548Z,87.00
2018-02-11T13:38:07.797Z,89.40
2018-02-11T13:40:34.265Z,89.00
2018-02-11T13:43:01.889Z,90.30
2018-02-11T13:45:28.294Z,90.90
2018-02-11T13:47:54.719Z,91.30
2018-02-11T13:50:21.142Z,91.50
2018-02-11T13:52:48.316Z,91.70
2018-02-11T13:55:17.492Z,91.90
2018-02-11T13:57:45.489Z,91.80
2018-02-11T14:00:11.899Z,91.80
2018-02-11T14:02:38.321Z,91.70
2018-02-11T14:05:05.480Z,91.80
2018-02-11T14:07:31.934Z,91.70
2018-02-11T14:09:58.357Z,91.70
2018-02-11T14:12:24.831Z,91.20
2018-02-11T14:14:51.284Z,90.70
2018-02-11T14:17:18.468Z,90.60
2018-02-11T14:19:44.911Z,90.60
2018-02-11T14:22:11.382Z,90.60
2018-02-11T14:24:37.859Z,90.20
2018-02-11T14:27:05.072Z,90.30
2018-02-11T14:29:31.649Z,90.20
2018-02-11T14:31:58.133Z,90.20
2018-02-11T14:34:24.737Z,90.10
2018-02-11T14:36:51.260Z,90.30
2018-02-11T14:39:17.776Z,90.00
2018-02-11T14:41:44.230Z,90.10
2018-02-11T14:44:10.730Z,89.60
2018-02-11T14:46:37.224Z,89.70
2018-02-11T14:49:03.741Z,89.80
2018-02-11T14:51:30.177Z,89.30
2018-02-11T14:53:57.580Z,89.10
2018-02-11T14:56:23.991Z,87.50
2018-02-11T14:58:50.557Z,87.30
2018-02-11T15:01:16.988Z,87.40
2018-02-11T15:03:43.403Z,87.10
2018-02-11T15:06:09.821Z,87.00
2018-02-11T15:08:37.087Z,86.90
2018-02-11T15:11:05.909Z,86.90
2018-02-11T15:13:32.331Z,86.60
2018-02-11T15:15:58.777Z,86.60
2018-02-11T15:18:25.230Z,86.60
2018-02-11T15:20:52.372Z,86.80
2018-02-11T15:23:18.776Z,86.80
2018-02-11T15:25:45.236Z,86.80
2018-02-11T15:28:11.654Z,87.00
2018-02-11T15:30:38.836Z,87.20
2018-02-11T15:33:05.995Z,87.80
2018-02-11T15:35:33.189Z,88.10
2018-02-11T15:37:59.652Z,87.90
2018-02-11T15:40:26.077Z,88.10
2018-02-11T15:42:52.520Z,88.50
2018-02-11T15:45:18.981Z,88.50
2018-02-11T15:47:45.448Z,88.60
2018-02-11T15:50:12.681Z,88.60
2018-02-11T15:52:39.117Z,88.60
2018-02-11T15:55:05.566Z,89.00
2018-02-11T15:57:31.997Z,89.30
2018-02-11T15:59:59.305Z,89.30
2018-02-11T16:02:25.730Z,89.40
2018-02-11T16:04:52.911Z,90.00
2018-02-11T16:07:20.076Z,90.00
2018-02-11T16:09:47.244Z,90.00
2018-02-11T16:12:14.432Z,89.90
2018-02-11T16:14:40.841Z,89.90
2018-02-11T16:17:07.277Z,90.00
2018-02-11T16:19:33.775Z,90.10
2018-02-11T16:22:00.217Z,90.30
2018-02-11T16:24:26.657Z,90.30
2018-02-11T16:26:53.117Z,90.20
2018-02-11T16:29:19.592Z,90.30
2018-02-11T16:31:46.014Z,90.20
2018-02-11T16:34:12.483Z,90.20
2018-02-11T16:36:38.985Z,90.40
2018-02-11T16:39:06.167Z,90.40
2018-02-11T16:41:32.615Z,90.40
2018-02-11T16:43:59.194Z,90.40
2018-02-11T16:46:25.634Z,90.40
2018-02-11T16:48:52.857Z,90.30
2018-02-11T16:51:19.304Z,90.30
2018-02-11T16:53:46.445Z,90.50
2018-02-11T16:56:12.857Z,90.50
2018-02-11T16:58:39.308Z,90.60
2018-02-11T17:01:05.710Z,90.60
2018-02-11T17:03:32.151Z,90.70
2018-02-11T17:05:59.330Z,90.80
2018-02-11T17:08:26.471Z,90.70
2018-02-11T17:10:52.895Z,90.70
2018-02-11T17:13:19.404Z,90.70
2018-02-11T17:15:46.565Z,91.00
2018-02-11T17:18:13.003Z,91.00
2018-02-11T17:20:39.479Z,91.00
2018-02-11T17:23:05.903Z,90.80
2018-02-11T17:25:32.329Z,90.80
2018-02-11T17:27:58.767Z,90.80
2018-02-11T17:30:25.206Z,90.90
2018-02-11T17:32:52.370Z,91.10
2018-02-11T17:35:18.840Z,91.10
2018-02-11T17:37:46.041Z,91.10
2018-02-11T17:40:12.518Z,91.10
2018-02-11T17:42:39.097Z,91.20
2018-02-11T17:45:05.561Z,91.30
2018-02-11T17:47:32.043Z,91.30
2018-02-11T17:49:59.286Z,91.40
2018-02-11T17:52:25.754Z,91.40
2018-02-11T17:54:52.207Z,91.50
2018-02-11T17:57:18.732Z,91.50
2018-02-11T17:59:45.360Z,91.60
2018-02-11T18:02:11.883Z,91.50
2018-02-11T18:04:38.452Z,91.50
2018-02-11T18:07:04.881Z,91.60
2018-02-11T18:09:31.313Z,91.70
2018-02-11T18:11:57.747Z,91.80
2018-02-11T18:14:24.206Z,91.90
2018-02-11T18:16:50.623Z,91.90
2018-02-11T18:19:18.137Z,91.80
2018-02-11T18:21:44.590Z,91.90
2018-02-11T18:24:11.041Z,91.80
2018-02-11T18:26:37.469Z,91.90
2018-02-11T18:29:03.887Z,92.20
2018-02-11T18:31:30.329Z,92.10
2018-02-11T18:33:56.780Z,92.00
2018-02-11T18:36:24.453Z,92.00
2018-02-11T18:38:50.900Z,92.10
2018-02-11T18:41:18.060Z,92.00
2018-02-11T18:43:45.222Z,92.10
2018-02-11T18:46:11.698Z,92.10
2018-02-11T18:48:38.937Z,92.30
2018-02-11T18:51:05.565Z,92.30
2018-02-11T18:53:31.993Z,92.30
2018-02-11T18:55:59.141Z,92.40
2018-02-11T18:58:25.588Z,92.80
2018-02-11T19:00:52.058Z,92.30
2018-02-11T19:03:18.550Z,92.50
2018-02-11T19:05:45.020Z,92.50
2018-02-11T19:08:11.484Z,92.50
2018-02-11T19:10:38.005Z,92.60
2018-02-11T19:13:05.161Z,92.60
2018-02-11T19:15:32.417Z,92.60
2018-02-11T19:17:59.624Z,92.40
2018-02-11T19:20:26.873Z,92.50
2018-02-11T19:22:53.335Z,92.50
2018-02-11T19:25:19.768Z,92.50
2018-02-11T19:27:46.264Z,92.60
2018-02-11T19:30:13.446Z,92.70
2018-02-11T19:32:39.877Z,92.60
2018-02-11T19:35:06.310Z,92.60
2018-02-11T19:37:32.707Z,92.40
2018-02-11T19:39:59.823Z,92.30
2018-02-11T19:42:26.238Z,92.20
2018-02-11T19:44:53.242Z,92.20
2018-02-11T19:47:19.678Z,92.00
2018-02-11T19:49:46.091Z,92.00
2018-02-11T19:52:12.485Z,91.90
2018-02-11T19:54:38.919Z,91.90
2018-02-11T19:57:06.091Z,92.40
2018-02-11T19:59:33.271Z,92.00
2018-02-11T20:01:59.670Z,91.90
2018-02-11T20:04:26.360Z,91.80
2018-02-11T20:06:52.814Z,91.70
2018-02-11T20:09:19.365Z,91.80
2018-02-11T20:11:45.824Z,91.70
2018-02-11T20:14:12.435Z,91.70
2018-02-11T20:16:38.981Z,91.80
2018-02-11T20:19:05.435Z,91.60
2018-02-11T20:21:31.959Z,91.60
2018-02-11T20:23:58.383Z,91.60
2018-02-11T20:26:24.811Z,91.60
2018-02-11T20:28:51.230Z,91.50
2018-02-11T20:31:17.672Z,91.30
2018-02-11T20:33:44.531Z,91.40
2018-02-11T20:36:10.991Z,91.30
2018-02-11T20:38:37.408Z,91.20
2018-02-11T20:41:03.841Z,91.10
2018-02-11T20:43:31.070Z,91.10
2018-02-11T20:45:57.450Z,91.10
2018-02-11T20:48:24.632Z,91.30
2018-02-11T20:50:51.781Z,91.20
2018-02-11T20:53:18.180Z,91.20
2018-02-11T20:55:45.262Z,91.20
2018-02-11T20:58:11.849Z,91.10
2018-02-11T21:00:39.257Z,91.50
2018-02-11T21:03:05.703Z,91.40
2018-02-11T21:05:32.304Z,91.50
2018-02-11T21:07:58.727Z,91.50
2018-02-11T21:10:25.946Z,91.90
2018-02-11T21:12:52.354Z,91.50
2018-02-11T21:15:18.783Z,91.70
2018-02-11T21:17:45.225Z,91.80
2018-02-11T21:20:12.425Z,91.70
2018-02-11T21:22:38.838Z,91.70
2018-02-11T21:25:05.266Z,91.90
2018-02-11T21:27:31.823Z,91.90
2018-02-11T21:29:59.280Z,92.00
2018-02-11T21:32:25.980Z,92.00
2018-02-11T21:34:52.408Z,92.00
2018-02-11T21:37:19.609Z,92.00
2018-02-11T21:39:46.073Z,92.00
2018-02-11T21:42:12.487Z,92.00
2018-02-11T21:44:38.900Z,92.00
2018-02-11T21:47:05.910Z,92.10
2018-02-11T21:49:32.705Z,92.20
2018-02-11T21:51:59.168Z,92.30
2018-02-11T21:54:25.841Z,92.60
2018-02-11T21:56:52.366Z,92.70
2018-02-11T21:59:19.634Z,93.00
2018-02-11T22:01:46.815Z,93.30
2018-02-11T22:04:14.041Z,93.40
2018-02-11T22:06:40.510Z,93.30
2018-02-11T22:09:07.016Z,93.60
2018-02-11T22:11:33.473Z,93.70
2018-02-11T22:13:59.893Z,93.80
2018-02-11T22:16:26.304Z,93.90
2018-02-11T22:18:52.842Z,94.00
2018-02-11T22:21:19.638Z,94.10
2018-02-11T22:23:46.118Z,94.20
2018-02-11T22:26:13.176Z,94.20
2018-02-11T22:28:39.783Z,94.20
2018-02-11T22:31:06.219Z,94.40
2018-02-11T22:33:32.669Z,94.40
2018-02-11T22:35:59.106Z,94.50
2018-02-11T22:38:25.546Z,94.60
2018-02-11T22:40:51.968Z,94.60
2018-02-11T22:43:18.374Z,94.40
2018-02-11T22:45:44.836Z,94.50
2018-02-11T22:48:11.378Z,94.70
2018-02-11T22:50:37.787Z,94.60
2018-02-11T22:53:04.945Z,94.30
2018-02-11T22:55:32.120Z,94.20
2018-02-11T22:57:59.322Z,94.30
2018-02-11T23:02:53.077Z,94.10
2018-02-11T23:05:19.491Z,94.00
2018-02-11T23:07:45.903Z,93.90
2018-02-11T23:10:12.357Z,93.70
2018-02-11T23:12:38.787Z,93.80
2018-02-11T23:15:05.259Z,93.80
2018-02-11T23:17:32.457Z,93.50
2018-02-11T23:19:58.865Z,93.50
2018-02-11T23:22:25.267Z,93.40
2018-02-11T23:24:51.685Z,93.30
2018-02-11T23:27:18.178Z,93.20
2018-02-11T23:29:44.653Z,93.20
2018-02-11T23:32:11.836Z,93.20
2018-02-11T23:34:38.271Z,93.20
2018-02-11T23:37:05.411Z,93.20
2018-02-11T23:39:31.887Z,93.00
2018-02-11T23:41:58.285Z,93.00
2018-02-11T23:44:24.730Z,93.00
2018-02-11T23:46:51.902Z,93.00
2018-02-11T23:49:19.086Z,93.10
2018-02-11T23:51:45.465Z,93.10
2018-02-11T23:54:11.880Z,93.10
2018-02-11T23:56:39.157Z,93.00
2018-02-11T23:59:06.316Z,93.10
